Soap Lake, Washington
Current Conditions -  °F | °C
As of 4:53 AM on Wednesday 26 Nov 2014 (Local Time) from KEPH Reporting Station
Overcast Overcast  
Wind Chill: 37°   Ceiling: 700
Heat Index: 37°   Visibility: 10mi
Dew Point: 36°   Wind: 3mph
Humidity: 96%   Direction: 30°NNE
Pressure: 30.16"   Gusts: NA
Location:  47.39°N, 119.49°W
Report Text: KEPH 261253Z AUTO 03003KT 10SM OVC007 03/02 A3016 RMK AO2 SLP225 T00280022
Loading
Personal Weather Stations






























Interactive Weather Map New forecast layout! Learn more

10-Day Weather Forecast

Advertisements
Track Severe Weather on mobile